createdAt,value
2023-01-13T00:02:16.107Z,0.70
2023-01-13T00:04:42.564Z,0.70
2023-01-13T00:07:08.900Z,0.40
2023-01-13T00:09:35.368Z,0.60
2023-01-13T00:12:01.738Z,0.50
2023-01-13T00:14:30.193Z,0.70
2023-01-13T00:16:57.544Z,0.50
2023-01-13T00:19:23.925Z,0.60
2023-01-13T00:21:50.243Z,0.80
2023-01-13T00:24:16.668Z,0.50
2023-01-13T00:26:43.122Z,0.60
2023-01-13T00:29:09.490Z,0.57
2023-01-13T00:31:35.849Z,0.60
2023-01-13T00:34:02.724Z,0.50
2023-01-13T00:36:29.479Z,0.53
2023-01-13T00:38:55.852Z,0.63
2023-01-13T00:41:23.269Z,0.60
2023-01-13T00:43:50.265Z,0.40
2023-01-13T00:46:17.696Z,0.70
2023-01-13T00:48:44.052Z,0.50
2023-01-13T00:51:15.073Z,0.57
2023-01-13T00:53:43.289Z,0.50
2023-01-13T00:56:38.383Z,0.50
2023-01-13T00:59:05.938Z,0.70
2023-01-13T01:01:32.546Z,0.70
2023-01-13T01:03:59.324Z,0.50
2023-01-13T01:06:26.518Z,0.63
2023-01-13T01:08:53.510Z,0.63
2023-01-13T01:11:21.570Z,0.50
2023-01-13T01:13:48.296Z,0.70
2023-01-13T01:16:16.037Z,0.40
2023-01-13T01:18:43.711Z,0.50
2023-01-13T01:21:10.657Z,0.60
2023-01-13T01:23:37.922Z,0.67
2023-01-13T01:26:05.595Z,0.50
2023-01-13T01:28:32.355Z,0.70
2023-01-13T01:30:59.852Z,0.47
2023-01-13T01:33:26.853Z,0.70
2023-01-13T01:35:53.903Z,0.60
2023-01-13T01:38:21.360Z,0.67
2023-01-13T01:40:47.948Z,0.80
2023-01-13T01:43:33.960Z,0.70
2023-01-13T01:46:00.360Z,0.60
2023-01-13T01:48:28.179Z,0.50
2023-01-13T01:50:54.552Z,0.60
2023-01-13T01:53:22.991Z,0.60
2023-01-13T01:55:49.338Z,0.50
2023-01-13T01:58:17.573Z,0.70
2023-01-13T02:00:44.406Z,0.60
2023-01-13T02:03:11.110Z,0.60
2023-01-13T02:05:38.977Z,0.50
2023-01-13T02:08:06.749Z,0.60
2023-01-13T02:10:33.144Z,0.60
2023-01-13T02:13:01.155Z,0.60
2023-01-13T02:15:32.888Z,0.60
2023-01-13T02:18:05.736Z,0.47
2023-01-13T02:20:38.720Z,0.60
2023-01-13T02:23:42.629Z,0.73
2023-01-13T02:26:27.635Z,0.60
2023-01-13T02:29:12.561Z,0.80
2023-01-13T02:31:43.718Z,0.70
2023-01-13T02:34:25.949Z,0.57
2023-01-13T02:36:58.084Z,0.67
2023-01-13T02:39:28.775Z,0.50
2023-01-13T02:42:21.774Z,0.50
2023-01-13T02:44:51.596Z,0.43
2023-01-13T02:47:20.550Z,0.50
2023-01-13T02:49:50.033Z,0.40
2023-01-13T02:52:39.898Z,0.50
2023-01-13T02:55:13.182Z,0.50
2023-01-13T02:57:39.731Z,0.40
2023-01-13T03:00:07.072Z,0.50
2023-01-13T03:02:33.326Z,0.50
2023-01-13T03:05:00.157Z,0.50
2023-01-13T03:07:45.948Z,0.40
2023-01-13T03:10:27.936Z,0.47
2023-01-13T03:13:00.150Z,0.50
2023-01-13T03:15:46.652Z,0.60
2023-01-13T03:18:21.182Z,0.47
2023-01-13T03:20:52.311Z,0.43
2023-01-13T03:23:29.274Z,0.77
2023-01-13T03:26:10.048Z,0.40
2023-01-13T03:28:42.429Z,0.50
2023-01-13T03:31:13.529Z,0.40
2023-01-13T03:33:42.437Z,0.60
2023-01-13T03:36:10.417Z,0.40
2023-01-13T03:38:39.175Z,0.50
2023-01-13T03:41:08.452Z,0.50
2023-01-13T03:44:12.270Z,0.40
2023-01-13T03:46:48.024Z,0.40
2023-01-13T03:49:17.897Z,0.40
2023-01-13T03:51:47.739Z,0.60
2023-01-13T03:54:15.455Z,0.50
2023-01-13T03:56:44.218Z,0.43
2023-01-13T03:59:14.172Z,0.50
2023-01-13T04:01:59.399Z,0.47
2023-01-13T04:04:29.532Z,0.40
2023-01-13T04:07:07.932Z,0.40
2023-01-13T04:09:40.220Z,0.60
2023-01-13T04:12:10.895Z,0.50
2023-01-13T04:14:38.844Z,0.43
2023-01-13T04:17:05.300Z,0.40
2023-01-13T04:19:32.973Z,0.50
2023-01-13T04:22:00.673Z,0.40
2023-01-13T04:24:27.114Z,0.50
2023-01-13T04:26:53.355Z,0.50
2023-01-13T04:29:19.567Z,0.50
2023-01-13T04:31:45.793Z,0.60
2023-01-13T04:34:12.112Z,0.40
2023-01-13T04:36:38.535Z,0.40
2023-01-13T04:39:04.764Z,0.50
2023-01-13T04:41:53.697Z,0.40
2023-01-13T04:44:19.991Z,0.40
2023-01-13T04:46:46.376Z,0.40
2023-01-13T04:49:12.609Z,0.50
2023-01-13T04:51:38.843Z,0.40
2023-01-13T04:54:05.252Z,0.40
2023-01-13T04:56:31.484Z,0.33
2023-01-13T04:58:57.757Z,0.40
2023-01-13T05:01:24.114Z,0.40
2023-01-13T05:03:50.376Z,0.50
2023-01-13T05:06:16.628Z,0.40
2023-01-13T05:08:42.845Z,0.60
2023-01-13T05:11:27.969Z,0.40
2023-01-13T05:14:12.696Z,0.40
2023-01-13T05:16:57.680Z,0.63
2023-01-13T05:19:23.928Z,0.40
2023-01-13T05:22:09.000Z,0.40
2023-01-13T05:24:53.745Z,0.40
2023-01-13T05:27:19.981Z,0.50
2023-01-13T05:29:46.195Z,0.50
2023-01-13T05:32:12.439Z,0.50
2023-01-13T05:34:38.654Z,0.60
2023-01-13T05:37:07.363Z,0.57
2023-01-13T05:39:53.682Z,0.60
2023-01-13T05:42:38.624Z,0.60
2023-01-13T05:45:05.009Z,0.50
2023-01-13T05:47:31.865Z,0.60
2023-01-13T05:49:58.084Z,0.50
2023-01-13T05:52:24.319Z,0.40
2023-01-13T05:54:51.025Z,0.43
2023-01-13T05:57:17.341Z,0.50
2023-01-13T05:59:43.548Z,0.50
2023-01-13T06:02:09.831Z,0.53
2023-01-13T06:04:36.190Z,0.57
2023-01-13T06:07:02.472Z,0.60
2023-01-13T06:09:28.716Z,0.40
2023-01-13T06:11:54.942Z,0.80
2023-01-13T06:14:21.669Z,0.63
2023-01-13T06:16:47.889Z,0.50
2023-01-13T06:19:14.112Z,0.50
2023-01-13T06:21:40.622Z,0.63
2023-01-13T06:24:07.644Z,0.60
2023-01-13T06:26:40.753Z,0.60
2023-01-13T06:29:08.270Z,0.50
2023-01-13T06:31:37.680Z,0.53
2023-01-13T06:34:08.661Z,0.50
2023-01-13T06:36:40.179Z,0.50
2023-01-13T06:39:06.667Z,0.60
2023-01-13T06:41:51.979Z,0.50
2023-01-13T06:44:19.242Z,0.50
2023-01-13T06:46:45.874Z,0.60
2023-01-13T06:49:12.097Z,0.80
2023-01-13T06:51:38.358Z,0.57
2023-01-13T06:54:04.804Z,0.50
2023-01-13T06:56:31.057Z,0.57
2023-01-13T06:58:57.303Z,0.60
2023-01-13T07:01:23.643Z,0.50
2023-01-13T07:03:49.896Z,0.50
2023-01-13T07:06:16.171Z,0.60
2023-01-13T07:08:42.386Z,0.70
2023-01-13T07:11:08.949Z,0.50
2023-01-13T07:13:53.933Z,0.50
2023-01-13T07:16:20.212Z,0.60
2023-01-13T07:18:46.466Z,0.60
2023-01-13T07:21:13.333Z,0.70
2023-01-13T07:23:41.047Z,0.50
2023-01-13T07:26:08.094Z,0.40
2023-01-13T07:28:34.365Z,0.57
2023-01-13T07:31:00.624Z,0.50
2023-01-13T07:33:27.222Z,0.63
2023-01-13T07:35:58.427Z,0.57
2023-01-13T07:38:25.134Z,0.57
2023-01-13T07:40:51.389Z,0.57
2023-01-13T07:43:32.626Z,0.50
2023-01-13T07:46:00.218Z,0.50
2023-01-13T07:48:27.194Z,0.50
2023-01-13T07:50:53.711Z,0.50
2023-01-13T07:53:20.444Z,0.70
2023-01-13T07:55:46.801Z,0.70
2023-01-13T07:58:13.082Z,0.50
2023-01-13T08:00:39.610Z,0.50
2023-01-13T08:03:06.051Z,0.60
2023-01-13T08:05:34.435Z,0.60
2023-01-13T08:08:01.164Z,0.63
2023-01-13T08:10:27.407Z,0.60
2023-01-13T08:13:12.263Z,0.50
2023-01-13T08:15:38.499Z,0.50
2023-01-13T08:18:04.762Z,0.60
2023-01-13T08:20:30.988Z,0.50
2023-01-13T08:22:58.034Z,0.60
2023-01-13T08:25:24.429Z,0.57
2023-01-13T08:27:50.719Z,0.40
2023-01-13T08:30:17.021Z,0.50
2023-01-13T08:32:46.766Z,0.57
2023-01-13T08:35:14.787Z,0.47
2023-01-13T08:37:41.454Z,0.50
2023-01-13T08:40:08.285Z,0.60
2023-01-13T08:42:34.721Z,0.57
2023-01-13T08:45:00.955Z,0.50
2023-01-13T08:47:28.712Z,0.40
2023-01-13T08:49:55.110Z,0.60
2023-01-13T08:52:21.504Z,0.53
2023-01-13T08:54:47.792Z,0.70
2023-01-13T08:57:15.238Z,0.67
2023-01-13T08:59:43.308Z,0.60
2023-01-13T09:02:12.895Z,0.60
2023-01-13T09:04:39.286Z,0.67
2023-01-13T09:07:05.586Z,0.83
2023-01-13T09:09:31.856Z,0.90
2023-01-13T09:12:16.749Z,0.70
2023-01-13T09:14:43.169Z,0.70
2023-01-13T09:17:09.501Z,1.40
2023-01-13T09:19:36.307Z,1.17
2023-01-13T09:22:02.641Z,0.90
2023-01-13T09:24:29.062Z,1.47
2023-01-13T09:26:55.319Z,0.83
2023-01-13T09:29:21.627Z,0.87
2023-01-13T09:31:48.132Z,2.63
2023-01-13T09:34:37.714Z,0.90
2023-01-13T09:37:04.781Z,0.70
2023-01-13T09:39:32.084Z,1.03
2023-01-13T09:42:20.543Z,0.80
2023-01-13T09:44:50.540Z,0.87
2023-01-13T09:47:23.954Z,0.90
2023-01-13T09:49:50.554Z,0.80
2023-01-13T09:52:21.731Z,0.90
2023-01-13T09:55:05.366Z,0.80
2023-01-13T09:57:34.187Z,0.50
2023-01-13T10:00:00.422Z,0.70
2023-01-13T10:02:45.359Z,0.70
2023-01-13T10:05:32.458Z,0.70
2023-01-13T10:08:02.070Z,0.80
2023-01-13T10:10:38.200Z,0.87
2023-01-13T10:13:20.050Z,0.80
2023-01-13T10:16:09.432Z,0.70
2023-01-13T10:18:35.653Z,0.70
2023-01-13T10:21:11.187Z,0.60
2023-01-13T10:23:56.494Z,0.77
2023-01-13T10:26:32.169Z,0.60
2023-01-13T10:28:58.424Z,0.73
2023-01-13T10:31:25.631Z,0.70
2023-01-13T10:33:58.359Z,0.50
2023-01-13T10:36:24.633Z,1.27
2023-01-13T10:38:51.034Z,0.60
2023-01-13T10:41:20.377Z,0.50
2023-01-13T10:43:52.691Z,0.40
2023-01-13T10:46:19.638Z,0.80
2023-01-13T10:48:53.449Z,0.70
2023-01-13T10:51:24.086Z,0.70
2023-01-13T10:53:50.357Z,0.70
2023-01-13T10:56:18.071Z,0.50
2023-01-13T10:58:44.353Z,0.70
2023-01-13T11:01:19.065Z,0.60
2023-01-13T11:03:47.994Z,0.60
2023-01-13T11:06:40.775Z,0.67
2023-01-13T11:09:18.714Z,0.67
2023-01-13T11:11:45.516Z,0.80
2023-01-13T11:14:33.341Z,0.60
2023-01-13T11:17:22.961Z,0.63
2023-01-13T11:19:53.427Z,0.70
2023-01-13T11:22:23.411Z,0.60
2023-01-13T11:24:54.716Z,0.70
2023-01-13T11:27:37.339Z,0.67
2023-01-13T11:30:25.537Z,0.90
2023-01-13T11:32:57.904Z,0.70
2023-01-13T11:35:24.208Z,0.90
2023-01-13T11:38:06.465Z,0.97
2023-01-13T11:40:36.617Z,0.80
2023-01-13T11:43:21.747Z,0.90
2023-01-13T11:45:53.627Z,1.00
2023-01-13T11:48:22.478Z,0.70
2023-01-13T11:50:51.906Z,0.80
2023-01-13T11:53:38.620Z,1.00
2023-01-13T11:56:25.594Z,0.97
2023-01-13T11:59:03.475Z,1.07
2023-01-13T12:01:33.645Z,0.80
2023-01-13T12:04:17.537Z,0.90
2023-01-13T12:06:44.413Z,0.87
2023-01-13T12:09:11.885Z,1.17
2023-01-13T12:12:03.245Z,0.87
2023-01-13T12:14:43.494Z,0.80
2023-01-13T12:17:16.079Z,0.93
2023-01-13T12:19:44.029Z,0.90
2023-01-13T12:22:17.491Z,1.00
2023-01-13T12:24:53.152Z,0.90
2023-01-13T12:27:38.243Z,0.90
2023-01-13T12:30:14.161Z,0.80
2023-01-13T12:32:40.583Z,1.33
2023-01-13T12:35:25.397Z,1.20
2023-01-13T12:38:01.572Z,1.10
2023-01-13T12:40:38.863Z,1.33
2023-01-13T12:43:34.101Z,1.33
2023-01-13T12:46:18.568Z,1.07
2023-01-13T12:48:57.119Z,1.17
2023-01-13T12:51:25.085Z,1.00
2023-01-13T12:53:51.864Z,0.90
2023-01-13T12:56:36.939Z,1.30
2023-01-13T12:59:21.643Z,1.47
2023-01-13T13:02:06.846Z,1.10
2023-01-13T13:04:43.185Z,1.00
2023-01-13T13:07:14.613Z,1.20
2023-01-13T13:09:47.622Z,1.17
2023-01-13T13:12:51.628Z,1.17
2023-01-13T13:15:21.972Z,1.23
2023-01-13T13:18:09.371Z,1.10
2023-01-13T13:20:55.538Z,0.90
2023-01-13T13:23:27.601Z,1.10
2023-01-13T13:26:02.428Z,1.10
2023-01-13T13:28:33.118Z,1.13
2023-01-13T13:31:10.247Z,1.03
2023-01-13T13:33:59.595Z,1.27
2023-01-13T13:36:46.086Z,0.93
2023-01-13T13:39:39.695Z,1.47
2023-01-13T13:42:39.439Z,0.90
2023-01-13T13:45:33.442Z,1.40
2023-01-13T13:48:00.967Z,1.27
2023-01-13T13:50:29.978Z,1.30
2023-01-13T13:53:01.161Z,1.40
2023-01-13T13:55:28.393Z,1.23
2023-01-13T13:57:55.834Z,1.20
2023-01-13T14:00:24.766Z,1.33
2023-01-13T14:02:52.778Z,1.00
2023-01-13T14:05:21.900Z,1.27
2023-01-13T14:07:49.589Z,1.30
2023-01-13T14:10:18.214Z,1.10
2023-01-13T14:12:44.469Z,1.10
2023-01-13T14:15:43.241Z,1.07
2023-01-13T14:18:13.838Z,1.20
2023-01-13T14:20:40.612Z,1.90
2023-01-13T14:23:07.093Z,1.23
2023-01-13T14:25:39.505Z,1.27
2023-01-13T14:28:26.096Z,1.33
2023-01-13T14:30:52.956Z,1.10
2023-01-13T14:33:24.137Z,1.20
2023-01-13T14:36:09.123Z,1.20
2023-01-13T14:38:35.345Z,1.43
2023-01-13T14:41:19.280Z,1.30
2023-01-13T14:43:46.175Z,1.10
2023-01-13T14:46:12.720Z,1.30
2023-01-13T14:48:40.916Z,1.23
2023-01-13T14:51:10.738Z,1.20
2023-01-13T14:53:46.502Z,1.53
2023-01-13T14:56:36.003Z,1.20
2023-01-13T14:59:22.792Z,1.38
2023-01-13T15:01:49.070Z,2.10
2023-01-13T15:04:17.333Z,1.93
2023-01-13T15:06:48.518Z,1.90
2023-01-13T15:09:22.608Z,1.40
2023-01-13T15:11:48.865Z,1.30
2023-01-13T15:14:17.327Z,2.13
2023-01-13T15:16:43.597Z,1.63
2023-01-13T15:19:09.895Z,1.63
2023-01-13T15:21:36.123Z,1.30
2023-01-13T15:24:02.665Z,1.53
2023-01-13T15:26:29.679Z,1.50
2023-01-13T15:28:56.740Z,2.03
2023-01-13T15:31:23.995Z,1.30
2023-01-13T15:33:50.569Z,1.20
2023-01-13T15:36:22.497Z,1.20
2023-01-13T15:38:48.760Z,1.20
2023-01-13T15:41:15.009Z,1.30
2023-01-13T15:44:00.078Z,1.53
2023-01-13T15:46:38.459Z,1.30
2023-01-13T15:49:27.898Z,1.67
2023-01-13T15:51:54.176Z,1.27
2023-01-13T15:54:23.008Z,1.53
2023-01-13T15:56:49.315Z,1.17
2023-01-13T15:59:17.344Z,1.10
2023-01-13T16:01:43.934Z,1.53
2023-01-13T16:04:10.503Z,1.20
2023-01-13T16:06:45.059Z,1.50
2023-01-13T16:09:13.027Z,1.80
2023-01-13T16:11:39.255Z,1.70
2023-01-13T16:14:05.471Z,1.67
2023-01-13T16:16:31.743Z,1.17
2023-01-13T16:18:58.069Z,1.47
2023-01-13T16:21:24.571Z,1.33
2023-01-13T16:23:51.184Z,1.10
2023-01-13T16:26:21.856Z,1.47
2023-01-13T16:28:48.570Z,1.13
2023-01-13T16:31:17.059Z,1.50
2023-01-13T16:33:43.375Z,1.23
2023-01-13T16:36:15.094Z,1.27
2023-01-13T16:38:41.811Z,1.20
2023-01-13T16:41:08.418Z,1.37
2023-01-13T16:43:34.827Z,1.17
2023-01-13T16:46:01.128Z,1.47
2023-01-13T16:48:27.368Z,1.67
2023-01-13T16:50:53.783Z,1.77
2023-01-13T16:53:20.052Z,1.63
2023-01-13T16:55:46.275Z,1.10
2023-01-13T16:58:16.327Z,1.37
2023-01-13T17:00:42.912Z,1.40
2023-01-13T17:03:09.219Z,1.60
2023-01-13T17:05:39.366Z,1.60
2023-01-13T17:08:05.664Z,1.30
2023-01-13T17:10:31.910Z,1.50
2023-01-13T17:13:00.052Z,1.40
2023-01-13T17:15:28.516Z,1.40
2023-01-13T17:17:55.237Z,1.50
2023-01-13T17:20:21.534Z,1.50
2023-01-13T17:22:57.694Z,1.70
2023-01-13T17:25:24.353Z,1.80
2023-01-13T17:27:50.607Z,2.00
2023-01-13T17:30:17.031Z,1.70
2023-01-13T17:32:43.336Z,1.63
2023-01-13T17:35:09.852Z,1.60
2023-01-13T17:37:36.072Z,1.57
2023-01-13T17:40:02.287Z,1.80
2023-01-13T17:42:29.609Z,1.77
2023-01-13T17:44:55.965Z,1.70
2023-01-13T17:47:22.213Z,1.70
2023-01-13T17:49:48.453Z,1.47
2023-01-13T17:52:15.000Z,1.83
2023-01-13T17:54:43.109Z,1.70
2023-01-13T17:57:09.899Z,1.70
2023-01-13T17:59:36.128Z,1.70
2023-01-13T18:02:02.752Z,1.57
2023-01-13T18:04:30.828Z,1.90
2023-01-13T18:06:57.117Z,1.90
2023-01-13T18:09:23.845Z,1.60
2023-01-13T18:11:50.147Z,1.50
2023-01-13T18:14:16.440Z,1.63
2023-01-13T18:16:43.149Z,1.60
2023-01-13T18:19:36.308Z,1.50
2023-01-13T18:22:21.169Z,1.63
2023-01-13T18:25:06.674Z,1.80
2023-01-13T18:27:34.773Z,1.70
2023-01-13T18:30:01.863Z,1.70
2023-01-13T18:32:32.918Z,1.57
2023-01-13T18:35:05.968Z,1.63
2023-01-13T18:37:35.663Z,1.60
2023-01-13T18:40:03.392Z,1.43
2023-01-13T18:42:48.333Z,1.40
2023-01-13T18:45:14.619Z,1.50
2023-01-13T18:47:42.244Z,1.43
2023-01-13T18:50:09.248Z,1.60
2023-01-13T18:52:36.369Z,1.30
2023-01-13T18:55:03.044Z,1.50
2023-01-13T18:57:29.581Z,1.50
2023-01-13T18:59:57.052Z,1.40
2023-01-13T19:02:26.244Z,1.30
2023-01-13T19:04:53.788Z,1.67
2023-01-13T19:07:26.754Z,1.37
2023-01-13T19:09:55.597Z,2.00
2023-01-13T19:12:30.724Z,1.67
2023-01-13T19:14:57.793Z,1.93
2023-01-13T19:17:24.988Z,1.80
2023-01-13T19:19:52.757Z,1.73
2023-01-13T19:22:23.321Z,1.90
2023-01-13T19:24:49.882Z,1.50
2023-01-13T19:27:17.228Z,1.90
2023-01-13T19:29:51.321Z,2.03
2023-01-13T19:32:18.556Z,1.73
2023-01-13T19:34:46.584Z,1.73
2023-01-13T19:37:12.872Z,1.37
2023-01-13T19:39:39.315Z,1.70
2023-01-13T19:42:24.198Z,1.60
2023-01-13T19:45:09.036Z,1.80
2023-01-13T19:47:35.360Z,1.40
2023-01-13T19:50:03.646Z,1.87
2023-01-13T19:52:30.344Z,1.60
2023-01-13T19:54:56.869Z,1.40
2023-01-13T19:57:23.117Z,1.27
2023-01-13T19:59:49.344Z,1.50
2023-01-13T20:02:17.144Z,1.53
2023-01-13T20:04:48.763Z,1.70
2023-01-13T20:07:15.153Z,1.40
2023-01-13T20:09:44.160Z,1.43
2023-01-13T20:12:14.193Z,1.30
2023-01-13T20:14:40.646Z,1.30
2023-01-13T20:17:08.070Z,1.70
2023-01-13T20:19:34.333Z,1.80
2023-01-13T20:22:00.574Z,1.43
2023-01-13T20:24:26.912Z,1.30
2023-01-13T20:26:56.215Z,1.70
2023-01-13T20:29:22.467Z,1.47
2023-01-13T20:31:49.656Z,1.60
2023-01-13T20:34:18.215Z,1.23
2023-01-13T20:36:45.047Z,1.23
2023-01-13T20:39:14.592Z,1.50
2023-01-13T20:41:59.375Z,1.80
2023-01-13T20:44:25.640Z,1.53
2023-01-13T20:46:54.439Z,2.20
2023-01-13T20:49:21.435Z,1.67
2023-01-13T20:51:47.847Z,2.27
2023-01-13T20:54:14.391Z,1.43
2023-01-13T20:56:40.893Z,1.50
2023-01-13T20:59:07.399Z,1.53
2023-01-13T21:01:33.767Z,1.80
2023-01-13T21:04:00.685Z,1.87
2023-01-13T21:06:27.851Z,1.60
2023-01-13T21:08:54.456Z,1.80
2023-01-13T21:11:43.640Z,1.90
2023-01-13T21:14:32.463Z,1.70
2023-01-13T21:16:58.742Z,1.53
2023-01-13T21:19:26.437Z,1.80
2023-01-13T21:21:52.703Z,1.87
2023-01-13T21:24:18.992Z,1.40
2023-01-13T21:26:45.277Z,1.33
2023-01-13T21:29:11.498Z,1.60
2023-01-13T21:31:37.803Z,1.43
2023-01-13T21:34:05.072Z,1.40
2023-01-13T21:36:31.304Z,1.50
2023-01-13T21:38:59.758Z,1.87
2023-01-13T21:41:45.178Z,1.47
2023-01-13T21:44:32.554Z,1.60
2023-01-13T21:47:17.265Z,1.20
2023-01-13T21:49:44.456Z,1.60
2023-01-13T21:52:14.176Z,1.40
2023-01-13T21:55:00.819Z,1.80
2023-01-13T21:57:27.682Z,2.00
2023-01-13T21:59:53.972Z,1.60
2023-01-13T22:02:31.576Z,2.80
2023-01-13T22:04:59.241Z,1.77
2023-01-13T22:07:26.518Z,1.87
2023-01-13T22:09:52.744Z,1.60
2023-01-13T22:12:22.795Z,2.10
2023-01-13T22:14:49.729Z,2.20
2023-01-13T22:17:16.569Z,2.23
2023-01-13T22:19:43.262Z,1.80
2023-01-13T22:22:14.258Z,1.90
2023-01-13T22:24:43.952Z,2.17
2023-01-13T22:27:10.857Z,1.57
2023-01-13T22:29:37.823Z,1.50
2023-01-13T22:32:04.670Z,1.50
2023-01-13T22:34:30.938Z,1.70
2023-01-13T22:36:57.249Z,1.20
2023-01-13T22:39:23.532Z,1.73
2023-01-13T22:41:49.763Z,1.83
2023-01-13T22:44:16.031Z,1.53
2023-01-13T22:46:42.296Z,1.73
2023-01-13T22:49:08.615Z,1.40
2023-01-13T22:51:34.856Z,1.87
2023-01-13T22:54:01.325Z,1.67
2023-01-13T22:56:27.626Z,1.60
2023-01-13T22:58:54.601Z,1.77
2023-01-13T23:01:21.070Z,1.60
2023-01-13T23:03:47.828Z,1.37
2023-01-13T23:06:14.589Z,1.50
2023-01-13T23:08:40.980Z,1.80
2023-01-13T23:11:08.433Z,1.40
2023-01-13T23:13:35.008Z,1.60
2023-01-13T23:16:02.009Z,1.47
2023-01-13T23:18:28.220Z,1.80
2023-01-13T23:20:54.463Z,1.80
2023-01-13T23:23:20.758Z,1.47
2023-01-13T23:25:53.356Z,1.50
2023-01-13T23:28:21.080Z,2.23
2023-01-13T23:30:47.391Z,1.80
2023-01-13T23:33:13.807Z,1.83
2023-01-13T23:35:40.021Z,1.63
2023-01-13T23:38:06.305Z,1.90
2023-01-13T23:40:35.587Z,1.90
2023-01-13T23:43:01.823Z,1.70
2023-01-13T23:45:28.080Z,1.90
2023-01-13T23:47:55.769Z,1.63
2023-01-13T23:50:22.003Z,1.63
2023-01-13T23:52:48.334Z,1.70
2023-01-13T23:55:14.609Z,1.60
2023-01-13T23:57:41.004Z,1.83
